sensor_id;sensor_type;location;lat;lon;timestamp;temperature;humidity
7958;DHT22;4024;52.172;5.378;2022-08-03T00:00:41;23.60;99.90
7958;DHT22;4024;52.172;5.378;2022-08-03T00:03:07;23.60;99.90
7958;DHT22;4024;52.172;5.378;2022-08-03T00:05:33;23.50;99.90
7958;DHT22;4024;52.172;5.378;2022-08-03T00:07:59;23.50;99.90
7958;DHT22;4024;52.172;5.378;2022-08-03T00:10:25;23.50;99.90
7958;DHT22;4024;52.172;5.378;2022-08-03T00:12:51;23.50;99.90
7958;DHT22;4024;52.172;5.378;2022-08-03T00:15:17;23.50;99.90
7958;DHT22;4024;52.172;5.378;2022-08-03T00:17:43;23.40;99.90
7958;DHT22;4024;52.172;5.378;2022-08-03T00:20:10;23.50;99.90
7958;DHT22;4024;52.172;5.378;2022-08-03T00:22:35;23.40;99.90
7958;DHT22;4024;52.172;5.378;2022-08-03T00:25:03;23.40;99.90
7958;DHT22;4024;52.172;5.378;2022-08-03T00:27:29;23.40;99.90
7958;DHT22;4024;52.172;5.378;2022-08-03T00:29:54;23.40;99.90
7958;DHT22;4024;52.172;5.378;2022-08-03T00:32:20;23.40;99.90
7958;DHT22;4024;52.172;5.378;2022-08-03T00:34:46;23.30;99.90
7958;DHT22;4024;52.172;5.378;2022-08-03T00:37:12;23.30;99.90
7958;DHT22;4024;52.172;5.378;2022-08-03T00:39:37;23.30;99.90
7958;DHT22;4024;52.172;5.378;2022-08-03T00:42:04;23.30;99.90
7958;DHT22;4024;52.172;5.378;2022-08-03T00:44:30;23.30;99.90
7958;DHT22;4024;52.172;5.378;2022-08-03T00:46:55;23.30;99.90
7958;DHT22;4024;52.172;5.378;2022-08-03T00:49:21;23.30;99.90
7958;DHT22;4024;52.172;5.378;2022-08-03T00:51:47;23.30;99.90
7958;DHT22;4024;52.172;5.378;2022-08-03T00:54:14;23.20;99.90
7958;DHT22;4024;52.172;5.378;2022-08-03T00:56:41;23.20;99.90
7958;DHT22;4024;52.172;5.378;2022-08-03T00:59:09;23.20;99.90
7958;DHT22;4024;52.172;5.378;2022-08-03T01:01:35;23.20;99.90
7958;DHT22;4024;52.172;5.378;2022-08-03T01:04:00;23.10;99.90
7958;DHT22;4024;52.172;5.378;2022-08-03T01:15:31;23.10;99.90
7958;DHT22;4024;52.172;5.378;2022-08-03T01:20:33;23.10;99.90
7958;DHT22;4024;52.172;5.378;2022-08-03T01:23:32;23.10;99.90
7958;DHT22;4024;52.172;5.378;2022-08-03T01:31:45;23.00;99.90
7958;DHT22;4024;52.172;5.378;2022-08-03T01:34:16;23.00;99.90
7958;DHT22;4024;52.172;5.378;2022-08-03T01:36:49;23.00;99.90
7958;DHT22;4024;52.172;5.378;2022-08-03T01:39:16;22.90;99.90
7958;DHT22;4024;52.172;5.378;2022-08-03T01:41:54;23.00;99.90
7958;DHT22;4024;52.172;5.378;2022-08-03T01:44:25;22.90;99.90
7958;DHT22;4024;52.172;5.378;2022-08-03T01:46:57;22.90;99.90
7958;DHT22;4024;52.172;5.378;2022-08-03T01:49:23;22.90;99.90
7958;DHT22;4024;52.172;5.378;2022-08-03T01:51:50;22.90;99.90
7958;DHT22;4024;52.172;5.378;2022-08-03T01:54:18;22.90;99.90
7958;DHT22;4024;52.172;5.378;2022-08-03T01:56:45;22.80;99.90
7958;DHT22;4024;52.172;5.378;2022-08-03T01:59:13;22.80;99.90
7958;DHT22;4024;52.172;5.378;2022-08-03T02:01:42;22.80;99.90
7958;DHT22;4024;52.172;5.378;2022-08-03T02:04:09;22.80;99.90
7958;DHT22;4024;52.172;5.378;2022-08-03T02:06:37;22.80;99.90
7958;DHT22;4024;52.172;5.378;2022-08-03T02:09:04;22.80;99.90
7958;DHT22;4024;52.172;5.378;2022-08-03T02:11:31;22.80;99.90
7958;DHT22;4024;52.172;5.378;2022-08-03T02:14:00;22.80;99.90
7958;DHT22;4024;52.172;5.378;2022-08-03T02:16:30;22.80;99.90
7958;DHT22;4024;52.172;5.378;2022-08-03T02:18:59;22.70;99.90
7958;DHT22;4024;52.172;5.378;2022-08-03T02:21:28;22.70;99.90
7958;DHT22;4024;52.172;5.378;2022-08-03T02:23:54;22.70;99.90
7958;DHT22;4024;52.172;5.378;2022-08-03T02:26:21;22.70;99.90
7958;DHT22;4024;52.172;5.378;2022-08-03T02:28:51;22.70;99.90
7958;DHT22;4024;52.172;5.378;2022-08-03T02:31:26;22.60;99.90
7958;DHT22;4024;52.172;5.378;2022-08-03T02:33:56;22.60;99.90
7958;DHT22;4024;52.172;5.378;2022-08-03T02:36:27;22.60;99.90
7958;DHT22;4024;52.172;5.378;2022-08-03T02:38:56;22.60;99.90
7958;DHT22;4024;52.172;5.378;2022-08-03T02:41:36;22.50;99.90
7958;DHT22;4024;52.172;5.378;2022-08-03T02:44:07;22.50;99.90
7958;DHT22;4024;52.172;5.378;2022-08-03T02:46:37;22.50;99.90
7958;DHT22;4024;52.172;5.378;2022-08-03T02:49:03;22.50;99.90
7958;DHT22;4024;52.172;5.378;2022-08-03T02:51:32;22.40;99.90
7958;DHT22;4024;52.172;5.378;2022-08-03T02:54:00;22.40;99.90
7958;DHT22;4024;52.172;5.378;2022-08-03T02:56:27;22.40;99.90
7958;DHT22;4024;52.172;5.378;2022-08-03T02:58:54;22.40;99.90
7958;DHT22;4024;52.172;5.378;2022-08-03T03:01:22;22.40;99.90
7958;DHT22;4024;52.172;5.378;2022-08-03T03:03:50;22.40;99.90
7958;DHT22;4024;52.172;5.378;2022-08-03T03:06:17;22.40;99.90
7958;DHT22;4024;52.172;5.378;2022-08-03T03:08:44;22.40;99.90
7958;DHT22;4024;52.172;5.378;2022-08-03T03:11:12;22.30;99.90
7958;DHT22;4024;52.172;5.378;2022-08-03T03:13:40;22.30;99.90
7958;DHT22;4024;52.172;5.378;2022-08-03T03:16:07;22.30;99.90
7958;DHT22;4024;52.172;5.378;2022-08-03T03:18:34;22.30;99.90
7958;DHT22;4024;52.172;5.378;2022-08-03T03:21:03;22.30;99.90
7958;DHT22;4024;52.172;5.378;2022-08-03T03:23:30;22.30;99.90
7958;DHT22;4024;52.172;5.378;2022-08-03T03:25:56;22.20;99.90
7958;DHT22;4024;52.172;5.378;2022-08-03T03:28:24;22.20;99.90
7958;DHT22;4024;52.172;5.378;2022-08-03T03:30:50;22.20;99.90
7958;DHT22;4024;52.172;5.378;2022-08-03T03:33:16;22.10;99.90
7958;DHT22;4024;52.172;5.378;2022-08-03T03:35:42;22.20;99.90
7958;DHT22;4024;52.172;5.378;2022-08-03T03:38:10;22.10;99.90
7958;DHT22;4024;52.172;5.378;2022-08-03T03:40:37;22.10;99.90
7958;DHT22;4024;52.172;5.378;2022-08-03T03:43:06;22.00;99.90
7958;DHT22;4024;52.172;5.378;2022-08-03T03:45:33;22.10;99.90
7958;DHT22;4024;52.172;5.378;2022-08-03T03:48:01;22.00;99.90
7958;DHT22;4024;52.172;5.378;2022-08-03T03:50:27;22.00;99.90
7958;DHT22;4024;52.172;5.378;2022-08-03T03:52:54;22.00;99.90
7958;DHT22;4024;52.172;5.378;2022-08-03T03:55:20;22.00;99.90
7958;DHT22;4024;52.172;5.378;2022-08-03T03:57:45;22.00;99.90
7958;DHT22;4024;52.172;5.378;2022-08-03T04:00:13;22.00;99.90
7958;DHT22;4024;52.172;5.378;2022-08-03T04:02:39;21.90;99.90
7958;DHT22;4024;52.172;5.378;2022-08-03T04:05:05;21.90;99.90
7958;DHT22;4024;52.172;5.378;2022-08-03T04:08:04;21.90;99.90
7958;DHT22;4024;52.172;5.378;2022-08-03T04:13:36;21.90;99.90
7958;DHT22;4024;52.172;5.378;2022-08-03T04:16:03;21.90;99.90
7958;DHT22;4024;52.172;5.378;2022-08-03T04:18:32;21.90;99.90
7958;DHT22;4024;52.172;5.378;2022-08-03T04:21:04;21.90;99.90
7958;DHT22;4024;52.172;5.378;2022-08-03T04:23:33;21.80;99.90
7958;DHT22;4024;52.172;5.378;2022-08-03T04:26:01;21.90;99.90
7958;DHT22;4024;52.172;5.378;2022-08-03T04:28:27;21.80;99.90
7958;DHT22;4024;52.172;5.378;2022-08-03T04:30:55;21.90;99.90
7958;DHT22;4024;52.172;5.378;2022-08-03T04:33:25;21.80;99.90
7958;DHT22;4024;52.172;5.378;2022-08-03T04:35:54;21.80;99.90
7958;DHT22;4024;52.172;5.378;2022-08-03T04:38:24;21.90;99.90
7958;DHT22;4024;52.172;5.378;2022-08-03T04:40:50;21.90;99.90
7958;DHT22;4024;52.172;5.378;2022-08-03T04:43:17;21.90;99.90
7958;DHT22;4024;52.172;5.378;2022-08-03T04:45:46;21.90;99.90
7958;DHT22;4024;52.172;5.378;2022-08-03T04:48:13;21.90;99.90
7958;DHT22;4024;52.172;5.378;2022-08-03T04:50:40;21.90;99.90
7958;DHT22;4024;52.172;5.378;2022-08-03T04:53:07;21.90;99.90
7958;DHT22;4024;52.172;5.378;2022-08-03T04:55:34;21.90;99.90
7958;DHT22;4024;52.172;5.378;2022-08-03T04:58:01;21.90;99.90
7958;DHT22;4024;52.172;5.378;2022-08-03T05:00:27;21.90;99.90
7958;DHT22;4024;52.172;5.378;2022-08-03T05:02:54;21.90;99.90
7958;DHT22;4024;52.172;5.378;2022-08-03T05:05:20;21.90;99.90
7958;DHT22;4024;52.172;5.378;2022-08-03T05:07:46;21.80;99.90
7958;DHT22;4024;52.172;5.378;2022-08-03T05:10:12;22.00;99.90
7958;DHT22;4024;52.172;5.378;2022-08-03T05:12:39;22.00;99.90
7958;DHT22;4024;52.172;5.378;2022-08-03T05:15:05;22.00;99.90
7958;DHT22;4024;52.172;5.378;2022-08-03T05:17:31;22.00;99.90
7958;DHT22;4024;52.172;5.378;2022-08-03T05:19:59;22.00;99.90
7958;DHT22;4024;52.172;5.378;2022-08-03T05:22:25;22.10;99.90
7958;DHT22;4024;52.172;5.378;2022-08-03T05:24:51;22.10;99.90
7958;DHT22;4024;52.172;5.378;2022-08-03T05:27:17;22.10;99.90
7958;DHT22;4024;52.172;5.378;2022-08-03T05:29:46;22.10;99.90
7958;DHT22;4024;52.172;5.378;2022-08-03T05:32:12;22.10;99.90
7958;DHT22;4024;52.172;5.378;2022-08-03T05:34:38;22.20;99.90
7958;DHT22;4024;52.172;5.378;2022-08-03T05:37:04;22.40;99.90
7958;DHT22;4024;52.172;5.378;2022-08-03T05:39:29;22.50;99.90
7958;DHT22;4024;52.172;5.378;2022-08-03T05:41:55;22.60;99.90
7958;DHT22;4024;52.172;5.378;2022-08-03T05:44:20;22.90;99.90
7958;DHT22;4024;52.172;5.378;2022-08-03T05:46:46;23.10;99.90
7958;DHT22;4024;52.172;5.378;2022-08-03T05:49:12;23.20;99.90
7958;DHT22;4024;52.172;5.378;2022-08-03T05:51:37;23.50;99.90
7958;DHT22;4024;52.172;5.378;2022-08-03T05:54:03;23.70;99.90
7958;DHT22;4024;52.172;5.378;2022-08-03T05:56:29;23.90;99.90
7958;DHT22;4024;52.172;5.378;2022-08-03T05:58:54;24.10;99.90
7958;DHT22;4024;52.172;5.378;2022-08-03T06:01:23;24.40;99.90
7958;DHT22;4024;52.172;5.378;2022-08-03T06:03:57;24.60;99.90
7958;DHT22;4024;52.172;5.378;2022-08-03T06:06:24;24.80;99.90
7958;DHT22;4024;52.172;5.378;2022-08-03T06:08:49;24.90;99.90
7958;DHT22;4024;52.172;5.378;2022-08-03T06:11:15;25.00;99.90
7958;DHT22;4024;52.172;5.378;2022-08-03T06:13:41;24.90;99.90
7958;DHT22;4024;52.172;5.378;2022-08-03T06:16:08;24.90;99.90
7958;DHT22;4024;52.172;5.378;2022-08-03T06:18:34;24.80;99.90
7958;DHT22;4024;52.172;5.378;2022-08-03T06:21:01;24.80;99.90
7958;DHT22;4024;52.172;5.378;2022-08-03T06:23:27;24.70;99.90
7958;DHT22;4024;52.172;5.378;2022-08-03T06:25:52;24.60;99.90
7958;DHT22;4024;52.172;5.378;2022-08-03T06:28:18;24.60;99.90
7958;DHT22;4024;52.172;5.378;2022-08-03T06:30:44;24.50;99.90
7958;DHT22;4024;52.172;5.378;2022-08-03T06:33:10;24.40;99.90
7958;DHT22;4024;52.172;5.378;2022-08-03T06:35:36;24.40;99.90
7958;DHT22;4024;52.172;5.378;2022-08-03T06:38:02;24.20;99.90
7958;DHT22;4024;52.172;5.378;2022-08-03T06:40:28;24.20;99.90
7958;DHT22;4024;52.172;5.378;2022-08-03T06:42:59;24.10;99.90
7958;DHT22;4024;52.172;5.378;2022-08-03T06:45:26;24.10;99.90
7958;DHT22;4024;52.172;5.378;2022-08-03T06:48:10;24.20;99.90
7958;DHT22;4024;52.172;5.378;2022-08-03T06:50:37;24.10;99.90
7958;DHT22;4024;52.172;5.378;2022-08-03T06:53:04;24.10;99.90
7958;DHT22;4024;52.172;5.378;2022-08-03T06:55:30;24.10;99.90
7958;DHT22;4024;52.172;5.378;2022-08-03T06:57:56;24.10;99.90
7958;DHT22;4024;52.172;5.378;2022-08-03T07:00:22;24.10;99.90
7958;DHT22;4024;52.172;5.378;2022-08-03T07:02:50;24.10;99.90
7958;DHT22;4024;52.172;5.378;2022-08-03T07:05:16;24.00;99.90
7958;DHT22;4024;52.172;5.378;2022-08-03T07:07:42;24.00;99.90
7958;DHT22;4024;52.172;5.378;2022-08-03T07:10:08;24.10;99.90
7958;DHT22;4024;52.172;5.378;2022-08-03T07:12:34;24.10;99.90
7958;DHT22;4024;52.172;5.378;2022-08-03T07:15:01;24.20;99.90
7958;DHT22;4024;52.172;5.378;2022-08-03T07:17:29;24.10;99.90
7958;DHT22;4024;52.172;5.378;2022-08-03T07:19:54;24.10;99.90
7958;DHT22;4024;52.172;5.378;2022-08-03T07:22:21;24.20;99.90
7958;DHT22;4024;52.172;5.378;2022-08-03T07:24:46;24.20;99.90
7958;DHT22;4024;52.172;5.378;2022-08-03T07:27:12;24.30;99.90
7958;DHT22;4024;52.172;5.378;2022-08-03T07:29:38;24.30;99.90
7958;DHT22;4024;52.172;5.378;2022-08-03T07:32:04;24.30;99.90
7958;DHT22;4024;52.172;5.378;2022-08-03T07:34:30;24.30;99.90
7958;DHT22;4024;52.172;5.378;2022-08-03T07:36:56;24.30;99.90
7958;DHT22;4024;52.172;5.378;2022-08-03T07:39:22;24.40;99.90
7958;DHT22;4024;52.172;5.378;2022-08-03T07:41:47;24.40;99.90
7958;DHT22;4024;52.172;5.378;2022-08-03T07:44:16;24.40;99.90
7958;DHT22;4024;52.172;5.378;2022-08-03T07:46:41;24.50;99.90
7958;DHT22;4024;52.172;5.378;2022-08-03T07:49:07;24.50;99.90
7958;DHT22;4024;52.172;5.378;2022-08-03T07:51:34;24.50;99.90
7958;DHT22;4024;52.172;5.378;2022-08-03T07:53:59;24.60;99.90
7958;DHT22;4024;52.172;5.378;2022-08-03T07:56:26;24.60;99.90
7958;DHT22;4024;52.172;5.378;2022-08-03T07:58:52;24.60;99.90
7958;DHT22;4024;52.172;5.378;2022-08-03T08:01:18;24.70;99.90
7958;DHT22;4024;52.172;5.378;2022-08-03T08:03:45;24.70;99.90
7958;DHT22;4024;52.172;5.378;2022-08-03T08:06:11;24.70;99.90
7958;DHT22;4024;52.172;5.378;2022-08-03T08:08:37;24.80;99.90
7958;DHT22;4024;52.172;5.378;2022-08-03T08:11:04;24.80;99.90
7958;DHT22;4024;52.172;5.378;2022-08-03T08:13:29;25.00;99.90
7958;DHT22;4024;52.172;5.378;2022-08-03T08:15:55;25.00;99.90
7958;DHT22;4024;52.172;5.378;2022-08-03T08:18:21;25.00;99.90
7958;DHT22;4024;52.172;5.378;2022-08-03T08:20:49;25.10;99.90
7958;DHT22;4024;52.172;5.378;2022-08-03T08:23:15;25.10;99.90
7958;DHT22;4024;52.172;5.378;2022-08-03T08:25:47;25.20;99.90
7958;DHT22;4024;52.172;5.378;2022-08-03T08:28:21;25.30;99.90
7958;DHT22;4024;52.172;5.378;2022-08-03T08:30:47;25.30;99.90
7958;DHT22;4024;52.172;5.378;2022-08-03T08:33:20;25.40;99.90
7958;DHT22;4024;52.172;5.378;2022-08-03T08:35:46;25.40;99.90
7958;DHT22;4024;52.172;5.378;2022-08-03T08:38:12;25.40;99.90
7958;DHT22;4024;52.172;5.378;2022-08-03T08:40:37;25.50;99.90
7958;DHT22;4024;52.172;5.378;2022-08-03T08:43:03;25.50;99.90
7958;DHT22;4024;52.172;5.378;2022-08-03T08:45:51;25.50;99.90
7958;DHT22;4024;52.172;5.378;2022-08-03T08:48:23;25.50;99.90
7958;DHT22;4024;52.172;5.378;2022-08-03T08:50:56;25.70;99.90
7958;DHT22;4024;52.172;5.378;2022-08-03T08:53:25;25.70;99.90
7958;DHT22;4024;52.172;5.378;2022-08-03T08:55:57;25.70;99.90
7958;DHT22;4024;52.172;5.378;2022-08-03T08:58:25;25.80;99.90
7958;DHT22;4024;52.172;5.378;2022-08-03T09:00:53;25.80;99.90
7958;DHT22;4024;52.172;5.378;2022-08-03T09:03:19;25.90;99.90
7958;DHT22;4024;52.172;5.378;2022-08-03T09:05:45;26.00;99.90
7958;DHT22;4024;52.172;5.378;2022-08-03T09:08:11;26.00;99.90
7958;DHT22;4024;52.172;5.378;2022-08-03T09:10:45;26.10;99.90
7958;DHT22;4024;52.172;5.378;2022-08-03T09:13:11;26.20;99.90
7958;DHT22;4024;52.172;5.378;2022-08-03T09:15:36;26.20;99.90
7958;DHT22;4024;52.172;5.378;2022-08-03T09:18:03;26.30;99.90
7958;DHT22;4024;52.172;5.378;2022-08-03T09:20:33;26.30;99.90
7958;DHT22;4024;52.172;5.378;2022-08-03T09:23:03;26.40;99.90
7958;DHT22;4024;52.172;5.378;2022-08-03T09:28:09;26.50;99.90
7958;DHT22;4024;52.172;5.378;2022-08-03T09:30:41;26.60;99.90
7958;DHT22;4024;52.172;5.378;2022-08-03T09:33:13;26.60;99.90
7958;DHT22;4024;52.172;5.378;2022-08-03T09:35:43;26.70;99.90
7958;DHT22;4024;52.172;5.378;2022-08-03T09:38:09;26.80;99.90
7958;DHT22;4024;52.172;5.378;2022-08-03T09:40:35;26.80;99.90
7958;DHT22;4024;52.172;5.378;2022-08-03T09:43:01;26.90;99.90
7958;DHT22;4024;52.172;5.378;2022-08-03T09:45:27;26.90;99.90
7958;DHT22;4024;52.172;5.378;2022-08-03T09:47:55;27.00;99.90
7958;DHT22;4024;52.172;5.378;2022-08-03T09:50:24;27.00;99.90
7958;DHT22;4024;52.172;5.378;2022-08-03T09:52:50;27.10;99.90
7958;DHT22;4024;52.172;5.378;2022-08-03T09:55:16;27.10;99.90
7958;DHT22;4024;52.172;5.378;2022-08-03T09:57:44;27.20;99.90
7958;DHT22;4024;52.172;5.378;2022-08-03T10:00:15;27.20;99.90
7958;DHT22;4024;52.172;5.378;2022-08-03T10:02:43;27.30;99.90
7958;DHT22;4024;52.172;5.378;2022-08-03T10:05:10;27.40;99.90
7958;DHT22;4024;52.172;5.378;2022-08-03T10:07:43;27.50;99.90
7958;DHT22;4024;52.172;5.378;2022-08-03T10:10:10;27.60;99.90
7958;DHT22;4024;52.172;5.378;2022-08-03T10:12:36;27.70;99.90
7958;DHT22;4024;52.172;5.378;2022-08-03T10:15:03;27.80;99.90
7958;DHT22;4024;52.172;5.378;2022-08-03T10:17:29;28.00;99.90
7958;DHT22;4024;52.172;5.378;2022-08-03T10:19:55;28.10;99.90
7958;DHT22;4024;52.172;5.378;2022-08-03T10:22:26;28.30;99.90
7958;DHT22;4024;52.172;5.378;2022-08-03T10:24:55;28.40;99.90
7958;DHT22;4024;52.172;5.378;2022-08-03T10:27:23;28.50;99.90
7958;DHT22;4024;52.172;5.378;2022-08-03T10:29:52;28.70;99.90
7958;DHT22;4024;52.172;5.378;2022-08-03T10:32:27;28.80;99.90
7958;DHT22;4024;52.172;5.378;2022-08-03T10:35:03;29.00;99.90
7958;DHT22;4024;52.172;5.378;2022-08-03T10:37:31;29.10;99.90
7958;DHT22;4024;52.172;5.378;2022-08-03T10:39:59;29.30;99.90
7958;DHT22;4024;52.172;5.378;2022-08-03T10:42:25;29.40;99.90
7958;DHT22;4024;52.172;5.378;2022-08-03T10:45:09;29.40;99.90
7958;DHT22;4024;52.172;5.378;2022-08-03T10:47:38;29.40;99.90
7958;DHT22;4024;52.172;5.378;2022-08-03T10:50:05;29.50;99.90
7958;DHT22;4024;52.172;5.378;2022-08-03T10:52:31;29.60;99.90
7958;DHT22;4024;52.172;5.378;2022-08-03T10:54:57;29.70;99.90
7958;DHT22;4024;52.172;5.378;2022-08-03T10:57:53;29.70;99.90
7958;DHT22;4024;52.172;5.378;2022-08-03T11:00:20;29.70;99.90
7958;DHT22;4024;52.172;5.378;2022-08-03T11:03:04;29.70;99.90
7958;DHT22;4024;52.172;5.378;2022-08-03T11:05:32;29.80;99.90
7958;DHT22;4024;52.172;5.378;2022-08-03T11:10:44;29.80;99.90
7958;DHT22;4024;52.172;5.378;2022-08-03T11:13:14;29.80;99.90
7958;DHT22;4024;52.172;5.378;2022-08-03T11:15:43;29.80;99.90
7958;DHT22;4024;52.172;5.378;2022-08-03T11:18:10;29.80;99.90
7958;DHT22;4024;52.172;5.378;2022-08-03T11:20:47;29.80;99.90
7958;DHT22;4024;52.172;5.378;2022-08-03T11:23:15;29.80;99.90
7958;DHT22;4024;52.172;5.378;2022-08-03T11:28:38;29.90;99.90
7958;DHT22;4024;52.172;5.378;2022-08-03T11:34:04;29.90;99.90
7958;DHT22;4024;52.172;5.378;2022-08-03T11:36:32;30.00;99.90
7958;DHT22;4024;52.172;5.378;2022-08-03T11:39:16;30.00;99.90
7958;DHT22;4024;52.172;5.378;2022-08-03T11:41:41;30.10;99.90
7958;DHT22;4024;52.172;5.378;2022-08-03T11:44:07;30.10;99.90
7958;DHT22;4024;52.172;5.378;2022-08-03T11:46:36;30.20;99.90
7958;DHT22;4024;52.172;5.378;2022-08-03T11:49:04;30.20;99.90
7958;DHT22;4024;52.172;5.378;2022-08-03T11:51:33;30.30;99.90
7958;DHT22;4024;52.172;5.378;2022-08-03T11:54:04;30.30;99.90
7958;DHT22;4024;52.172;5.378;2022-08-03T11:56:47;30.30;99.90
7958;DHT22;4024;52.172;5.378;2022-08-03T11:59:13;30.30;99.90
7958;DHT22;4024;52.172;5.378;2022-08-03T12:01:39;30.40;99.90
7958;DHT22;4024;52.172;5.378;2022-08-03T12:04:05;30.50;99.90
7958;DHT22;4024;52.172;5.378;2022-08-03T12:06:31;30.30;99.90
7958;DHT22;4024;52.172;5.378;2022-08-03T12:09:19;30.60;99.90
7958;DHT22;4024;52.172;5.378;2022-08-03T12:11:48;30.60;99.90
7958;DHT22;4024;52.172;5.378;2022-08-03T12:14:18;30.70;99.90
7958;DHT22;4024;52.172;5.378;2022-08-03T12:16:47;30.80;99.90
7958;DHT22;4024;52.172;5.378;2022-08-03T12:19:14;30.80;99.90
7958;DHT22;4024;52.172;5.378;2022-08-03T12:21:49;30.80;99.90
7958;DHT22;4024;52.172;5.378;2022-08-03T12:24:15;30.90;99.90
7958;DHT22;4024;52.172;5.378;2022-08-03T12:26:46;30.90;99.90
7958;DHT22;4024;52.172;5.378;2022-08-03T12:29:22;30.90;99.90
7958;DHT22;4024;52.172;5.378;2022-08-03T12:31:50;31.00;99.90
7958;DHT22;4024;52.172;5.378;2022-08-03T12:34:16;31.10;99.90
7958;DHT22;4024;52.172;5.378;2022-08-03T12:36:52;31.10;99.90
7958;DHT22;4024;52.172;5.378;2022-08-03T12:39:24;31.20;99.90
7958;DHT22;4024;52.172;5.378;2022-08-03T12:41:55;31.20;99.90
7958;DHT22;4024;52.172;5.378;2022-08-03T12:44:31;31.30;99.90
7958;DHT22;4024;52.172;5.378;2022-08-03T12:46:58;31.30;99.90
7958;DHT22;4024;52.172;5.378;2022-08-03T12:49:24;31.30;99.90
7958;DHT22;4024;52.172;5.378;2022-08-03T12:54:17;31.40;99.90
7958;DHT22;4024;52.172;5.378;2022-08-03T12:59:31;31.60;99.90
7958;DHT22;4024;52.172;5.378;2022-08-03T13:01:57;31.60;99.90
7958;DHT22;4024;52.172;5.378;2022-08-03T13:04:31;31.70;99.90
7958;DHT22;4024;52.172;5.378;2022-08-03T13:07:07;31.60;99.90
7958;DHT22;4024;52.172;5.378;2022-08-03T13:14:37;31.70;99.90
7958;DHT22;4024;52.172;5.378;2022-08-03T13:17:03;31.70;99.90
7958;DHT22;4024;52.172;5.378;2022-08-03T13:19:32;31.70;99.90
7958;DHT22;4024;52.172;5.378;2022-08-03T13:21:58;31.70;99.90
7958;DHT22;4024;52.172;5.378;2022-08-03T13:24:24;31.80;99.90
7958;DHT22;4024;52.172;5.378;2022-08-03T13:26:50;31.80;99.90
7958;DHT22;4024;52.172;5.378;2022-08-03T13:29:16;31.90;99.90
7958;DHT22;4024;52.172;5.378;2022-08-03T13:31:42;31.90;99.90
7958;DHT22;4024;52.172;5.378;2022-08-03T13:34:08;31.90;99.90
7958;DHT22;4024;52.172;5.378;2022-08-03T13:36:33;32.00;99.90
7958;DHT22;4024;52.172;5.378;2022-08-03T13:38:59;32.00;99.90
7958;DHT22;4024;52.172;5.378;2022-08-03T13:41:25;32.00;99.90
7958;DHT22;4024;52.172;5.378;2022-08-03T13:43:50;32.10;99.90
7958;DHT22;4024;52.172;5.378;2022-08-03T13:46:16;32.10;99.90
7958;DHT22;4024;52.172;5.378;2022-08-03T13:48:42;32.20;99.90
7958;DHT22;4024;52.172;5.378;2022-08-03T13:51:07;32.20;99.90
7958;DHT22;4024;52.172;5.378;2022-08-03T13:53:33;32.20;99.90
7958;DHT22;4024;52.172;5.378;2022-08-03T13:55:59;32.30;99.90
7958;DHT22;4024;52.172;5.378;2022-08-03T13:58:24;32.30;99.90
7958;DHT22;4024;52.172;5.378;2022-08-03T14:00:50;32.30;99.90
7958;DHT22;4024;52.172;5.378;2022-08-03T14:03:18;32.30;99.90
7958;DHT22;4024;52.172;5.378;2022-08-03T14:05:43;32.30;99.90
7958;DHT22;4024;52.172;5.378;2022-08-03T14:08:10;32.30;99.90
7958;DHT22;4024;52.172;5.378;2022-08-03T14:10:38;32.40;99.90
7958;DHT22;4024;52.172;5.378;2022-08-03T14:13:04;32.40;99.90
7958;DHT22;4024;52.172;5.378;2022-08-03T14:15:30;32.40;99.90
7958;DHT22;4024;52.172;5.378;2022-08-03T14:17:56;32.40;99.90
7958;DHT22;4024;52.172;5.378;2022-08-03T14:20:22;32.50;99.90
7958;DHT22;4024;52.172;5.378;2022-08-03T14:22:48;32.50;99.90
7958;DHT22;4024;52.172;5.378;2022-08-03T14:25:13;32.50;99.90
7958;DHT22;4024;52.172;5.378;2022-08-03T14:27:39;32.50;99.90
7958;DHT22;4024;52.172;5.378;2022-08-03T14:30:05;32.50;99.90
7958;DHT22;4024;52.172;5.378;2022-08-03T14:32:31;32.50;99.90
7958;DHT22;4024;52.172;5.378;2022-08-03T14:34:56;32.50;99.90
7958;DHT22;4024;52.172;5.378;2022-08-03T14:37:22;32.50;99.90
7958;DHT22;4024;52.172;5.378;2022-08-03T14:39:48;32.50;99.90
7958;DHT22;4024;52.172;5.378;2022-08-03T14:42:13;32.50;99.90
7958;DHT22;4024;52.172;5.378;2022-08-03T14:44:40;32.50;99.90
7958;DHT22;4024;52.172;5.378;2022-08-03T14:47:05;32.50;99.90
7958;DHT22;4024;52.172;5.378;2022-08-03T14:49:31;32.60;99.90
7958;DHT22;4024;52.172;5.378;2022-08-03T14:51:57;32.60;99.90
7958;DHT22;4024;52.172;5.378;2022-08-03T14:54:23;32.60;99.90
7958;DHT22;4024;52.172;5.378;2022-08-03T14:56:50;32.60;99.90
7958;DHT22;4024;52.172;5.378;2022-08-03T14:59:16;32.60;99.90
7958;DHT22;4024;52.172;5.378;2022-08-03T15:01:41;32.60;99.90
7958;DHT22;4024;52.172;5.378;2022-08-03T15:04:07;32.70;99.90
7958;DHT22;4024;52.172;5.378;2022-08-03T15:06:33;32.60;99.90
7958;DHT22;4024;52.172;5.378;2022-08-03T15:08:59;32.70;99.90
7958;DHT22;4024;52.172;5.378;2022-08-03T15:11:24;32.70;99.90
7958;DHT22;4024;52.172;5.378;2022-08-03T15:13:50;32.70;99.90
7958;DHT22;4024;52.172;5.378;2022-08-03T15:16:15;32.70;99.90
7958;DHT22;4024;52.172;5.378;2022-08-03T15:18:41;32.70;99.90
7958;DHT22;4024;52.172;5.378;2022-08-03T15:21:07;32.70;99.90
7958;DHT22;4024;52.172;5.378;2022-08-03T15:23:32;32.80;99.90
7958;DHT22;4024;52.172;5.378;2022-08-03T15:25:58;32.70;99.70
7958;DHT22;4024;52.172;5.378;2022-08-03T15:28:24;32.70;99.90
7958;DHT22;4024;52.172;5.378;2022-08-03T15:30:51;32.70;99.90
7958;DHT22;4024;52.172;5.378;2022-08-03T15:33:17;32.80;99.90
7958;DHT22;4024;52.172;5.378;2022-08-03T15:35:42;32.70;99.90
7958;DHT22;4024;52.172;5.378;2022-08-03T15:38:08;32.70;99.90
7958;DHT22;4024;52.172;5.378;2022-08-03T15:40:34;32.80;99.90
7958;DHT22;4024;52.172;5.378;2022-08-03T15:43:00;32.80;99.90
7958;DHT22;4024;52.172;5.378;2022-08-03T15:45:26;32.70;99.90
7958;DHT22;4024;52.172;5.378;2022-08-03T15:47:51;32.70;99.90
7958;DHT22;4024;52.172;5.378;2022-08-03T15:50:17;32.70;99.90
7958;DHT22;4024;52.172;5.378;2022-08-03T15:52:43;32.70;99.90
7958;DHT22;4024;52.172;5.378;2022-08-03T15:55:09;32.70;99.90
7958;DHT22;4024;52.172;5.378;2022-08-03T15:57:35;32.70;99.70
7958;DHT22;4024;52.172;5.378;2022-08-03T16:00:06;32.70;99.90
7958;DHT22;4024;52.172;5.378;2022-08-03T16:02:34;32.70;99.90
7958;DHT22;4024;52.172;5.378;2022-08-03T16:05:00;32.60;99.30
7958;DHT22;4024;52.172;5.378;2022-08-03T16:07:26;32.60;99.70
7958;DHT22;4024;52.172;5.378;2022-08-03T16:10:08;32.70;99.90
7958;DHT22;4024;52.172;5.378;2022-08-03T16:12:34;32.70;99.80
7958;DHT22;4024;52.172;5.378;2022-08-03T16:15:00;32.70;99.90
7958;DHT22;4024;52.172;5.378;2022-08-03T16:17:27;32.70;99.90
7958;DHT22;4024;52.172;5.378;2022-08-03T16:19:53;32.80;99.90
7958;DHT22;4024;52.172;5.378;2022-08-03T16:22:19;32.80;99.90
7958;DHT22;4024;52.172;5.378;2022-08-03T16:24:44;32.80;99.90
7958;DHT22;4024;52.172;5.378;2022-08-03T16:27:11;32.80;99.70
7958;DHT22;4024;52.172;5.378;2022-08-03T16:29:36;32.80;99.40
7958;DHT22;4024;52.172;5.378;2022-08-03T16:32:02;32.90;99.20
7958;DHT22;4024;52.172;5.378;2022-08-03T16:34:35;32.90;99.80
7958;DHT22;4024;52.172;5.378;2022-08-03T16:37:02;32.90;99.30
7958;DHT22;4024;52.172;5.378;2022-08-03T16:39:27;32.90;99.70
7958;DHT22;4024;52.172;5.378;2022-08-03T16:41:53;32.90;99.20
7958;DHT22;4024;52.172;5.378;2022-08-03T16:44:19;32.90;98.60
7958;DHT22;4024;52.172;5.378;2022-08-03T16:46:45;32.90;99.40